1898 Tropical Storm NOT_NAMED (1898273N14335)


IBTrACS version v04r00. Visit IBTrACS website for data access.
Please direct all questions to the IBTrACS Q and A forum

Storm track - Intensity - Wind Radii - Intensity Data - Source Data - All data

Summary Information

Storm ID 1898273N14335
Start Sep 29 12Z
Max Intensity 50 kt (Oct 1 00Z)
End Oct 8 12Z
ATCF IDs
Track status Best track data.

Storm track plot

Map of storm track

Intensity plots

Map of storm track

Radial wind information

No radial wind information for this storm


Position and Intensity Table

BASIN ISO_TIME_________ NATURE LAT LON MLC WIND
degrees north degrees east kts
NA 1898-09-29 12:00:00 TS 13.80 -25.50 25
NA 15:00:00 TS 13.84 -26.16 25
NA 18:00:00 TS 13.90 -26.80 25
NA 21:00:00 TS 13.99 -27.40 27
NA 1898-09-30 00:00:00 TS 14.10 -28.00 30
NA 03:00:00 TS 14.20 -28.65 32
NA 06:00:00 TS 14.30 -29.30 35
NA 09:00:00 TS 14.38 -29.87 37
NA 12:00:00 TS 14.50 -30.50 40
NA 15:00:00 TS 14.69 -31.31 42
NA 18:00:00 TS 14.90 -32.20 45
NA 21:00:00 TS 15.10 -33.09 47
NA 1898-10-01 00:00:00 TS 15.30 -33.90 50
NA 03:00:00 TS 15.51 -34.46 50
NA 06:00:00 TS 15.70 -35.10 50
NA 09:00:00 TS 15.84 -36.23 50
NA 12:00:00 TS 16.00 -37.30 50
NA 15:00:00 TS 16.23 -37.81 50
NA 18:00:00 TS 16.50 -38.10 50
NA 21:00:00 TS 16.75 -38.50 50
NA 1898-10-02 00:00:00 TS 17.00 -38.90 50
NA 03:00:00 TS 17.25 -39.30 50
NA 06:00:00 TS 17.50 -39.70 50
NA 09:00:00 TS 17.72 -40.10 50
NA 12:00:00 TS 18.00 -40.50 50
NA 15:00:00 TS 18.42 -40.91 50
NA 18:00:00 TS 18.90 -41.30 50
NA 21:00:00 TS 19.36 -41.67 50
NA 1898-10-03 00:00:00 TS 19.80 -42.00 50
NA 03:00:00 TS 20.20 -42.27 50
NA 06:00:00 TS 20.60 -42.50 50
NA 09:00:00 TS 21.07 -42.81 50
NA 12:00:00 TS 21.50 -43.00 50
NA 15:00:00 TS 21.78 -42.90 50
NA 18:00:00 TS 22.00 -42.70 50
NA 21:00:00 TS 22.25 -42.63 50
NA 1898-10-04 00:00:00 TS 22.50 -42.50 50
NA 03:00:00 TS 22.75 -42.20 47
NA 06:00:00 TS 23.00 -41.80 45
NA 09:00:00 TS 23.23 -41.42 45
NA 12:00:00 TS 23.50 -41.00 45
NA 15:00:00 TS 23.88 -40.52 45
NA 18:00:00 TS 24.30 -40.00 45
NA 21:00:00 TS 24.65 -39.50 42
NA 1898-10-05 00:00:00 TS 25.00 -39.00 40
NA 03:00:00 TS 25.40 -38.50 40
NA 06:00:00 TS 25.80 -38.00 40
NA 09:00:00 TS 26.14 -37.52 40
NA 12:00:00 TS 26.50 -37.00 40
NA 15:00:00 TS 26.94 -36.37 40
NA 18:00:00 TS 27.40 -35.70 40
NA 21:00:00 TS 27.85 -35.09 40
NA 1898-10-06 00:00:00 TS 28.30 -34.50 40
NA 03:00:00 TS 28.76 -33.91 40
NA 06:00:00 TS 29.20 -33.30 40
NA 09:00:00 TS 29.65 -32.60 40
NA 12:00:00 TS 30.00 -32.00 40
NA 15:00:00 TS 30.19 -31.69 37
NA 18:00:00 TS 30.30 -31.50 35
NA 21:00:00 TS 30.40 -31.25 35
NA 1898-10-07 00:00:00 TS 30.50 -31.00 35
NA 03:00:00 TS 30.65 -30.75 32
NA 06:00:00 TS 30.80 -30.50 30
NA 09:00:00 TS 30.91 -30.26 30
NA 12:00:00 TS 31.00 -30.00 30
NA 15:00:00 TS 31.11 -29.72 30
NA 18:00:00 TS 31.20 -29.40 30
NA 21:00:00 TS 31.26 -29.05 27
NA 1898-10-08 00:00:00 TS 31.30 -28.70 25
NA 03:00:00 TS 31.35 -28.39 25
NA 06:00:00 TS 31.40 -28.10 25
NA 09:00:00 TS 31.45 -27.80 25
NA 12:00:00 TS 31.50 -27.50 25

Source Information

Agency Information
USA
TOKYO
CMA
HKO
NEWDELHI
REUNION
BOM
NADI
WELLINGTON
DS824
TD9636
TD9635
NEUMANN
MLC

All available IBTrACS Data

SEASON BASIN SUBBASIN ISO_TIME_________ NATURE LAT LON DIST2LAND LANDFALL IFLAG USA SSHS MLC LAT MLC LON MLC CLASS MLC WIND STORM SPEED STORM DIR
Year degrees north degrees east km km 1 degrees north degrees east kts kts degrees
1898 NA NA 1898-09-29 12:00:00 TS 13.80 -25.50 868 868 _____________O -1 13.80 -25.50 TD 25 13 274
1898 NA NA 15:00:00 TS 13.84 -26.16 943 943 _____________P -1 13.84 -26.16 TD 25 13 275
1898 NA NA 18:00:00 TS 13.90 -26.80 1006 1006 _____________O -1 13.90 -26.80 TD 25 12 277
1898 NA NA 21:00:00 TS 13.99 -27.40 1069 1069 _____________P -1 13.99 -27.40 TD 27 12 280
1898 NA NA 1898-09-30 00:00:00 TS 14.10 -28.00 1133 1133 _____________O -1 14.10 -28.00 TD 30 12 280
1898 NA NA 03:00:00 TS 14.20 -28.65 1207 1207 _____________P -1 14.20 -28.65 TD 32 13 279
1898 NA NA 06:00:00 TS 14.30 -29.30 1271 1271 _____________O -1 14.30 -29.30 TS 35 12 279
1898 NA NA 09:00:00 TS 14.38 -29.87 1335 1335 _____________P -1 14.38 -29.87 TS 37 12 280
1898 NA NA 12:00:00 TS 14.50 -30.50 1399 1399 _____________O -1 14.50 -30.50 TS 40 14 282
1898 NA NA 15:00:00 TS 14.69 -31.31 1484 1484 _____________P -1 14.69 -31.31 TS 42 17 284
1898 NA NA 18:00:00 TS 14.90 -32.20 1580 1580 _____________O -1 14.90 -32.20 TS 45 18 284
1898 NA NA 21:00:00 TS 15.10 -33.09 1677 1677 _____________P -1 15.10 -33.09 TS 47 17 284
1898 NA NA 1898-10-01 00:00:00 TS 15.30 -33.90 1763 1763 _____________O -1 15.30 -33.90 TS 50 14 287
1898 NA NA 03:00:00 TS 15.51 -34.46 1827 1827 _____________P -1 15.51 -34.46 TS 50 12 289
1898 NA NA 06:00:00 TS 15.70 -35.10 1892 1892 _____________O -1 15.70 -35.10 TS 50 17 281
1898 NA NA 09:00:00 TS 15.84 -36.23 2010 2010 _____________P -1 15.84 -36.23 TS 50 21 278
1898 NA NA 12:00:00 TS 16.00 -37.30 2014 1988 _____________O -1 16.00 -37.30 TS 50 16 284
1898 NA NA 15:00:00 TS 16.23 -37.81 1988 1986 _____________P -1 16.23 -37.81 TS 50 9 303
1898 NA NA 18:00:00 TS 16.50 -38.10 1986 1970 _____________O -1 16.50 -38.10 TS 50 8 308
1898 NA NA 21:00:00 TS 16.75 -38.50 1970 1962 _____________P -1 16.75 -38.50 TS 50 9 303
1898 NA NA 1898-10-02 00:00:00 TS 17.00 -38.90 1962 1949 _____________O -1 17.00 -38.90 TS 50 9 303
1898 NA NA 03:00:00 TS 17.25 -39.30 1949 1942 _____________P -1 17.25 -39.30 TS 50 9 303
1898 NA NA 06:00:00 TS 17.50 -39.70 1945 1932 _____________O -1 17.50 -39.70 TS 50 9 302
1898 NA NA 09:00:00 TS 17.72 -40.10 1934 1929 _____________P -1 17.72 -40.10 TS 50 9 303
1898 NA NA 12:00:00 TS 18.00 -40.50 1932 1928 _____________O -1 18.00 -40.50 TS 50 10 312
1898 NA NA 15:00:00 TS 18.42 -40.91 1942 1942 _____________P -1 18.42 -40.91 TS 50 12 320
1898 NA NA 18:00:00 TS 18.90 -41.30 1963 1963 _____________O -1 18.90 -41.30 TS 50 12 322
1898 NA NA 21:00:00 TS 19.36 -41.67 1980 1980 _____________P -1 19.36 -41.67 TS 50 11 324
1898 NA NA 1898-10-03 00:00:00 TS 19.80 -42.00 1997 1997 _____________O -1 19.80 -42.00 TS 50 10 326
1898 NA NA 03:00:00 TS 20.20 -42.27 2015 2015 _____________P -1 20.20 -42.27 TS 50 9 330
1898 NA NA 06:00:00 TS 20.60 -42.50 2040 2040 _____________O -1 20.60 -42.50 TS 50 10 330
1898 NA NA 09:00:00 TS 21.07 -42.81 2070 2070 _____________P -1 21.07 -42.81 TS 50 10 333
1898 NA NA 12:00:00 TS 21.50 -43.00 2097 2097 _____________O -1 21.50 -43.00 TS 50 7 353
1898 NA NA 15:00:00 TS 21.78 -42.90 2131 2131 _____________P -1 21.78 -42.90 TS 50 6 29
1898 NA NA 18:00:00 TS 22.00 -42.70 2161 2161 _____________O -1 22.00 -42.70 TS 50 5 28
1898 NA NA 21:00:00 TS 22.25 -42.63 2186 2186 _____________P -1 22.25 -42.63 TS 50 5 20
1898 NA NA 1898-10-04 00:00:00 TS 22.50 -42.50 2220 2220 _____________O -1 22.50 -42.50 TS 50 6 39
1898 NA NA 03:00:00 TS 22.75 -42.20 2264 2264 _____________P -1 22.75 -42.20 TS 47 8 52
1898 NA NA 06:00:00 TS 23.00 -41.80 2305 2305 _____________O -1 23.00 -41.80 TS 45 9 56
1898 NA NA 09:00:00 TS 23.23 -41.42 2346 2346 _____________P -1 23.23 -41.42 TS 45 9 56
1898 NA NA 12:00:00 TS 23.50 -41.00 2396 2396 _____________O -1 23.50 -41.00 TS 45 11 52
1898 NA NA 15:00:00 TS 23.88 -40.52 2409 2348 _____________P -1 23.88 -40.52 TS 45 12 49
1898 NA NA 18:00:00 TS 24.30 -40.00 2348 2290 _____________O -1 24.30 -40.00 TS 45 12 50
1898 NA NA 21:00:00 TS 24.65 -39.50 2290 2230 _____________P -1 24.65 -39.50 TS 42 11 52
1898 NA NA 1898-10-05 00:00:00 TS 25.00 -39.00 2230 2171 _____________O -1 25.00 -39.00 TS 40 12 50
1898 NA NA 03:00:00 TS 25.40 -38.50 2171 2112 _____________P -1 25.40 -38.50 TS 40 12 48
1898 NA NA 06:00:00 TS 25.80 -38.00 2112 2056 _____________O -1 25.80 -38.00 TS 40 12 50
1898 NA NA 09:00:00 TS 26.14 -37.52 2056 1999 _____________P -1 26.14 -37.52 TS 40 11 52
1898 NA NA 12:00:00 TS 26.50 -37.00 1999 1933 _____________O -1 26.50 -37.00 TS 40 13 53
1898 NA NA 15:00:00 TS 26.94 -36.37 1933 1856 _____________P -1 26.94 -36.37 TS 40 15 52
1898 NA NA 18:00:00 TS 27.40 -35.70 1856 1792 _____________O -1 27.40 -35.70 TS 40 15 51
1898 NA NA 21:00:00 TS 27.85 -35.09 1792 1729 _____________P -1 27.85 -35.09 TS 40 14 50
1898 NA NA 1898-10-06 00:00:00 TS 28.30 -34.50 1729 1668 _____________O -1 28.30 -34.50 TS 40 14 49
1898 NA NA 03:00:00 TS 28.76 -33.91 1667 1608 _____________P -1 28.76 -33.91 TS 40 14 49
1898 NA NA 06:00:00 TS 29.20 -33.30 1608 1541 _____________O -1 29.20 -33.30 TS 40 14 52
1898 NA NA 09:00:00 TS 29.65 -32.60 1541 1485 _____________P -1 29.65 -32.60 TS 40 14 55
1898 NA NA 12:00:00 TS 30.00 -32.00 1485 1458 _____________O -1 30.00 -32.00 TS 40 10 55
1898 NA NA 15:00:00 TS 30.19 -31.69 1458 1439 _____________P -1 30.19 -31.69 TS 37 5 55
1898 NA NA 18:00:00 TS 30.30 -31.50 1439 1421 _____________O -1 30.30 -31.50 TS 35 4 62
1898 NA NA 21:00:00 TS 30.40 -31.25 1412 1394 _____________P -1 30.40 -31.25 TS 35 5 65
1898 NA NA 1898-10-07 00:00:00 TS 30.50 -31.00 1394 1376 _____________O -1 30.50 -31.00 TS 35 5 60
1898 NA NA 03:00:00 TS 30.65 -30.75 1376 1351 _____________P -1 30.65 -30.75 TS 32 5 55
1898 NA NA 06:00:00 TS 30.80 -30.50 1351 1334 _____________O -1 30.80 -30.50 TD 30 5 59
1898 NA NA 09:00:00 TS 30.91 -30.26 1334 1308 _____________P -1 30.91 -30.26 TD 30 5 65
1898 NA NA 12:00:00 TS 31.00 -30.00 1308 1282 _____________O -1 31.00 -30.00 TD 30 5 67
1898 NA NA 15:00:00 TS 31.11 -29.72 1282 1256 _____________P -1 31.11 -29.72 TD 30 6 69
1898 NA NA 18:00:00 TS 31.20 -29.40 1256 1228 _____________O -1 31.20 -29.40 TD 30 6 75
1898 NA NA 21:00:00 TS 31.26 -29.05 1221 1193 _____________P -1 31.26 -29.05 TD 27 6 81
1898 NA NA 1898-10-08 00:00:00 TS 31.30 -28.70 1193 1166 _____________O -1 31.30 -28.70 TD 25 6 81
1898 NA NA 03:00:00 TS 31.35 -28.39 1166 1141 _____________P -1 31.35 -28.39 TD 25 5 79
1898 NA NA 06:00:00 TS 31.40 -28.10 1141 1113 _____________O -1 31.40 -28.10 TD 25 5 79
1898 NA NA 09:00:00 TS 31.45 -27.80 1116 1089 _____________P -1 31.45 -27.80 TD 25 5 79
1898 NA NA 12:00:00 TS 31.50 -27.50 1089 _____________O -1 31.50 -27.50 TD 25 5 79